Time;durP1;ratioP1;P1;durP2;ratioP2;P2;SDS_P1;SDS_P2;PMS_P1;PMS_P2;Temp;Humidity;BMP_temperature;BMP_pressure;BME280_temperature;BME280_humidity;BME280_pressure;Samples;Min_cycle;Max_cycle;Signal;HPM_P1;HPM_P2
2021/04/27 00:01:46;;;;;;;6.45;2.40;;;9.60;61.70;;;;;;4985381;28;20072;-84
2021/04/27 00:04:12;;;;;;;4.60;2.00;;;9.60;61.30;;;;;;5033123;28;20100;-83
2021/04/27 00:06:37;;;;;;;3.90;2.10;;;9.60;62.40;;;;;;4987027;28;20581;-83
2021/04/27 00:09:06;;;;;;;7.97;2.67;;;9.50;62.30;;;;;;5013147;28;20026;-83
2021/04/27 00:11:32;;;;;;;3.92;1.95;;;9.50;62.20;;;;;;5006484;28;20030;-83
2021/04/27 00:13:58;;;;;;;4.80;2.28;;;9.50;63.20;;;;;;5030344;28;20026;-81
2021/04/27 00:16:24;;;;;;;7.00;2.10;;;9.40;62.40;;;;;;5007086;28;20030;-80
2021/04/27 00:18:49;;;;;;;6.03;2.25;;;9.40;62.50;;;;;;5003477;28;20033;-81
2021/04/27 00:21:15;;;;;;;7.13;2.13;;;9.40;63.00;;;;;;5011581;28;20030;-80
2021/04/27 00:23:40;;;;;;;4.97;2.38;;;9.30;62.70;;;;;;5012739;28;20040;-80
2021/04/27 00:26:06;;;;;;;4.85;2.33;;;9.30;63.10;;;;;;4976699;28;20026;-81
2021/04/27 00:28:32;;;;;;;4.93;2.13;;;9.20;63.00;;;;;;4996294;28;20040;-80
2021/04/27 00:30:57;;;;;;;5.65;2.35;;;9.20;63.30;;;;;;4997504;28;20079;-80
2021/04/27 00:33:23;;;;;;;6.95;2.30;;;9.20;63.30;;;;;;4997433;28;20032;-80
2021/04/27 00:35:49;;;;;;;4.50;2.15;;;9.10;63.40;;;;;;5013889;28;20360;-80
2021/04/27 00:38:15;;;;;;;5.85;2.35;;;9.10;63.20;;;;;;4980758;28;20058;-80
2021/04/27 00:40:40;;;;;;;3.38;2.00;;;9.10;63.80;;;;;;5001193;28;20021;-81
2021/04/27 00:43:06;;;;;;;4.75;2.20;;;9.00;63.60;;;;;;5001368;28;20032;-81
2021/04/27 00:45:32;;;;;;;5.22;2.28;;;9.00;64.30;;;;;;5017354;28;20018;-80
2021/04/27 00:47:58;;;;;;;7.25;2.15;;;9.00;64.10;;;;;;5001088;28;20378;-80
2021/04/27 00:50:34;;;;;;;7.07;2.80;;;8.90;64.00;;;;;;5016956;28;20056;-81
2021/04/27 00:53:02;;;;;;;4.15;2.20;;;8.90;64.30;;;;;;5017405;28;20467;-81
2021/04/27 00:55:29;;;;;;;4.60;2.20;;;8.90;64.00;;;;;;5017170;28;20060;-80
2021/04/27 00:57:55;;;;;;;4.43;2.50;;;8.80;64.50;;;;;;5034938;28;20140;-81
2021/04/27 01:00:25;;;;;;;5.32;2.58;;;8.80;64.80;;;;;;5004900;28;20061;-80
2021/04/27 01:02:51;;;;;;;7.55;2.83;;;8.70;65.40;;;;;;4997287;28;20029;-80
2021/04/27 01:05:21;;;;;;;5.97;2.72;;;8.70;64.70;;;;;;4988900;28;20125;-81
2021/04/27 01:08:11;;;;;;;7.63;2.70;;;8.70;65.00;;;;;;5014574;28;20088;-81
2021/04/27 01:11:07;;;;;;;6.93;2.83;;;8.60;65.70;;;;;;5004167;28;20072;-81
2021/04/27 01:13:55;;;;;;;4.93;2.72;;;8.60;65.80;;;;;;4999548;28;20356;-80
2021/04/27 01:16:21;;;;;;;7.15;3.00;;;8.50;65.50;;;;;;5003075;28;20490;-81
2021/04/27 01:18:51;;;;;;;7.72;2.53;;;8.50;65.70;;;;;;5000422;28;20124;-81
2021/04/27 01:21:18;;;;;;;6.97;3.20;;;8.50;65.90;;;;;;5000316;28;20057;-80
2021/04/27 01:23:52;;;;;;;6.45;2.60;;;8.40;66.10;;;;;;4986283;28;20494;-80
2021/04/27 01:26:20;;;;;;;6.47;2.65;;;8.40;66.40;;;;;;4997055;28;20482;-80
2021/04/27 01:28:48;;;;;;;5.63;2.40;;;8.40;66.50;;;;;;5022842;28;20032;-81
2021/04/27 01:31:15;;;;;;;7.72;3.05;;;8.30;66.70;;;;;;5033416;28;20037;-81
2021/04/27 01:33:42;;;;;;;6.95;2.78;;;8.30;66.70;;;;;;5023819;28;20380;-80
2021/04/27 01:36:09;;;;;;;9.38;2.70;;;8.30;67.10;;;;;;4972572;28;20022;-80
2021/04/27 01:38:35;;;;;;;5.13;2.78;;;8.20;66.60;;;;;;4995016;28;20049;-80
2021/04/27 01:41:02;;;;;;;9.05;2.70;;;8.20;66.90;;;;;;5034170;28;20029;-80
2021/04/27 01:43:28;;;;;;;7.43;2.97;;;8.20;67.30;;;;;;4994327;28;20033;-80
2021/04/27 01:46:03;;;;;;;6.13;3.15;;;8.20;68.20;;;;;;5025953;28;20025;-81
2021/04/27 01:48:30;;;;;;;6.55;3.20;;;8.10;67.40;;;;;;5019028;28;20045;-80
2021/04/27 01:50:56;;;;;;;8.25;2.47;;;8.10;67.50;;;;;;4988872;28;20511;-81
2021/04/27 01:53:23;;;;;;;6.90;3.10;;;8.10;67.20;;;;;;4980509;28;20108;-81
2021/04/27 01:55:49;;;;;;;6.95;3.00;;;8.00;67.90;;;;;;5016167;28;20471;-80
2021/04/27 01:58:15;;;;;;;7.70;2.53;;;8.00;67.20;;;;;;5016578;28;20105;-80
2021/04/27 02:00:41;;;;;;;6.53;2.53;;;8.00;67.20;;;;;;5016845;28;20026;-80
2021/04/27 02:03:07;;;;;;;8.50;2.97;;;7.90;67.80;;;;;;4998539;28;20025;-81
2021/04/27 02:05:33;;;;;;;5.05;2.63;;;7.90;68.20;;;;;;5013640;28;20492;-81
2021/04/27 02:07:59;;;;;;;8.82;2.90;;;7.80;68.20;;;;;;4997928;28;20037;-81
2021/04/27 02:10:27;;;;;;;4.97;2.83;;;7.90;68.30;;;;;;5014327;28;20438;-81
2021/04/27 02:12:55;;;;;;;5.72;2.80;;;7.80;68.80;;;;;;5014117;28;20025;-81
2021/04/27 02:15:23;;;;;;;4.63;2.50;;;7.80;68.60;;;;;;5000250;28;20025;-81
2021/04/27 02:17:52;;;;;;;6.15;2.58;;;7.70;68.30;;;;;;4996044;28;20036;-81
2021/04/27 02:20:25;;;;;;;6.03;2.63;;;7.70;69.20;;;;;;4996108;28;20384;-81
2021/04/27 02:22:51;;;;;;;5.07;3.13;;;7.60;68.90;;;;;;4992324;28;20426;-81
2021/04/27 02:25:19;;;;;;;5.22;2.75;;;7.60;69.00;;;;;;5013611;28;20025;-81
2021/04/27 02:27:46;;;;;;;5.22;2.97;;;7.60;69.50;;;;;;5015202;28;20026;-80
2021/04/27 02:30:14;;;;;;;6.40;2.90;;;7.60;69.80;;;;;;4995917;28;20034;-80
2021/04/27 02:32:41;;;;;;;6.50;2.90;;;7.60;69.30;;;;;;5013429;28;20017;-80
2021/04/27 02:35:10;;;;;;;4.90;2.60;;;7.50;69.60;;;;;;5005122;28;20443;-80
2021/04/27 02:37:35;;;;;;;5.38;2.70;;;7.50;69.70;;;;;;5011905;28;20821;-80
2021/04/27 02:40:01;;;;;;;7.70;3.05;;;7.50;69.70;;;;;;5015250;28;20048;-80
2021/04/27 02:42:27;;;;;;;8.85;3.13;;;7.40;69.90;;;;;;4998839;28;20107;-80
2021/04/27 02:44:56;;;;;;;6.95;2.75;;;7.40;70.50;;;;;;4998922;28;20368;-80
2021/04/27 02:47:21;;;;;;;6.38;2.85;;;7.40;70.30;;;;;;5003279;28;20041;-80
2021/04/27 02:49:47;;;;;;;5.90;2.88;;;7.40;70.30;;;;;;4977077;28;20459;-80
2021/04/27 02:52:12;;;;;;;5.03;2.50;;;7.40;71.00;;;;;;4995532;28;20529;-80
2021/04/27 02:54:38;;;;;;;5.20;2.95;;;7.30;71.00;;;;;;4981055;28;20113;-80
2021/04/27 02:57:04;;;;;;;7.47;3.20;;;7.30;71.50;;;;;;5015104;28;20025;-80
2021/04/27 02:59:36;;;;;;;7.93;3.40;;;7.30;71.40;;;;;;4984661;28;20407;-80
2021/04/27 03:02:02;;;;;;;5.45;2.80;;;7.30;71.30;;;;;;4982434;28;20038;-80
2021/04/27 03:04:27;;;;;;;6.32;3.20;;;7.30;71.00;;;;;;5014881;28;20379;-79
2021/04/27 03:06:53;;;;;;;6.25;3.20;;;7.30;71.30;;;;;;4982054;28;20033;-80
2021/04/27 03:09:19;;;;;;;6.57;3.60;;;7.30;71.60;;;;;;5004484;28;20494;-80
2021/04/27 03:11:44;;;;;;;7.85;2.90;;;7.20;71.00;;;;;;4981509;28;20033;-80
2021/04/27 03:14:10;;;;;;;5.70;3.03;;;7.20;71.30;;;;;;5006127;28;20497;-80
2021/04/27 03:16:35;;;;;;;5.57;3.15;;;7.20;71.60;;;;;;5009348;28;20497;-79
2021/04/27 03:19:01;;;;;;;6.10;2.88;;;7.20;71.30;;;;;;4995152;28;20029;-79
2021/04/27 03:21:27;;;;;;;5.28;2.90;;;7.10;71.60;;;;;;4998229;28;20034;-80
2021/04/27 03:23:54;;;;;;;6.65;3.50;;;7.10;71.60;;;;;;4993542;28;20041;-80
2021/04/27 03:26:21;;;;;;;11.07;3.03;;;7.00;72.00;;;;;;4970102;28;20480;-80
2021/04/27 03:28:47;;;;;;;8.23;3.30;;;7.10;72.20;;;;;;4995202;28;20471;-80
2021/04/27 03:31:12;;;;;;;5.43;2.80;;;7.00;72.00;;;;;;4994880;28;20034;-80
2021/04/27 03:33:41;;;;;;;5.85;3.10;;;7.00;72.20;;;;;;5008646;28;20030;-80
2021/04/27 03:36:07;;;;;;;7.70;3.60;;;7.00;72.50;;;;;;5002206;28;20025;-80
2021/04/27 03:38:33;;;;;;;5.95;3.00;;;6.90;72.30;;;;;;5014391;28;20032;-80
2021/04/27 03:40:58;;;;;;;9.10;3.20;;;6.90;72.40;;;;;;4994613;28;20026;-80
2021/04/27 03:43:24;;;;;;;4.47;2.78;;;6.90;72.50;;;;;;5002117;28;20383;-80
2021/04/27 03:45:50;;;;;;;7.65;3.35;;;6.90;72.70;;;;;;5014510;28;20034;-80
2021/04/27 04:07:55;;;;;;;5.15;3.10;;;6.70;73.90;;;;;;5013934;28;20504;-85
2021/04/27 04:13:48;;;;;;;10.18;3.40;;;6.60;74.00;;;;;;5018268;28;20490;-85
2021/04/27 04:16:14;;;;;;;4.65;3.10;;;6.60;73.80;;;;;;5001063;28;20041;-85
2021/04/27 04:18:39;;;;;;;6.35;3.63;;;6.60;73.80;;;;;;5000974;28;20451;-84
2021/04/27 04:21:05;;;;;;;7.70;3.35;;;6.50;74.30;;;;;;5000805;28;20080;-85
2021/04/27 04:23:31;;;;;;;7.00;3.58;;;6.50;74.30;;;;;;4968104;28;20034;-84
2021/04/27 04:26:09;;;;;;;5.38;3.25;;;6.50;74.30;;;;;;5000782;28;20100;-85
2021/04/27 04:32:04;;;;;;;6.55;3.22;;;6.50;74.80;;;;;;5017812;28;20018;-84
2021/04/27 04:38:18;;;;;;;7.93;3.30;;;6.50;74.40;;;;;;5017983;28;20173;-85
2021/04/27 04:44:08;;;;;;;7.75;3.63;;;6.40;75.20;;;;;;5017941;28;20060;-85
2021/04/27 04:49:56;;;;;;;8.95;3.63;;;6.40;74.60;;;;;;5017841;28;20048;-85
2021/04/27 04:56:00;;;;;;;7.97;3.53;;;6.40;75.70;;;;;;5017407;28;20525;-85
2021/04/27 05:01:55;;;;;;;7.53;3.60;;;6.30;75.20;;;;;;5017253;28;20489;-84
2021/04/27 05:19:18;;;;;;;7.00;3.80;;;6.20;77.00;;;;;;5016823;28;20701;-84
2021/04/27 05:21:44;;;;;;;6.05;3.80;;;6.20;75.90;;;;;;4983216;28;20288;-84
2021/04/27 05:24:10;;;;;;;5.28;3.25;;;6.20;76.70;;;;;;4967353;28;20177;-85
2021/04/27 05:26:36;;;;;;;6.05;3.65;;;6.20;76.90;;;;;;4999560;28;20022;-84
2021/04/27 05:29:02;;;;;;;6.07;3.72;;;6.20;76.20;;;;;;4983709;28;20037;-84
2021/04/27 05:31:28;;;;;;;7.13;4.03;;;6.20;76.70;;;;;;4979829;28;20487;-85
2021/04/27 05:33:53;;;;;;;7.60;4.00;;;6.20;75.30;;;;;;4984230;28;20442;-83
2021/04/27 05:36:19;;;;;;;8.32;3.45;;;6.10;75.60;;;;;;4983181;28;20414;-83
2021/04/27 05:38:45;;;;;;;8.25;4.05;;;6.20;75.60;;;;;;4983735;28;20030;-83
2021/04/27 05:41:10;;;;;;;8.55;3.95;;;6.20;75.60;;;;;;4983218;28;20447;-84
2021/04/27 05:43:36;;;;;;;8.70;4.88;;;6.10;75.60;;;;;;4982971;28;20057;-84
2021/04/27 05:46:02;;;;;;;7.55;4.05;;;6.20;75.60;;;;;;4998917;28;20386;-83
2021/04/27 05:48:27;;;;;;;5.97;3.60;;;6.20;75.60;;;;;;4966788;28;20026;-84
2021/04/27 05:50:53;;;;;;;10.85;4.03;;;6.20;75.20;;;;;;4967316;28;20076;-84
2021/04/27 05:53:19;;;;;;;7.20;3.97;;;6.20;75.80;;;;;;4966852;28;20027;-87
2021/04/27 05:55:52;;;;;;;7.82;4.43;;;6.20;75.10;;;;;;4964017;28;20391;-85
2021/04/27 05:58:20;;;;;;;8.43;4.10;;;6.30;74.60;;;;;;4981026;28;20084;-85
2021/04/27 06:00:46;;;;;;;8.10;4.00;;;6.30;74.80;;;;;;4999347;28;20037;-85
2021/04/27 06:03:11;;;;;;;11.98;4.75;;;6.30;74.50;;;;;;4998360;28;20471;-85
2021/04/27 06:05:37;;;;;;;7.32;4.00;;;6.30;74.50;;;;;;5010259;28;20085;-85
2021/04/27 06:11:25;;;;;;;7.55;4.07;;;6.40;74.20;;;;;;4996630;28;20030;-85
2021/04/27 06:14:23;;;;;;;6.65;3.63;;;6.40;74.40;;;;;;4963104;28;20030;-85
2021/04/27 06:21:01;;;;;;;7.57;4.68;;;6.50;74.40;;;;;;4996489;28;20033;-85
2021/04/27 06:26:49;;;;;;;6.38;4.03;;;6.50;73.50;;;;;;4996283;28;20046;-85
2021/04/27 06:32:52;;;;;;;6.15;3.90;;;6.60;72.90;;;;;;4996056;28;20044;-85
2021/04/27 06:35:19;;;;;;;;;;;6.70;72.40;;;;;;4963051;28;20026;-85
2021/04/27 06:37:44;;;;;;;5.82;3.53;;;6.80;72.50;;;;;;4946241;28;20286;-84
2021/04/27 06:40:11;;;;;;;5.65;3.08;;;6.80;72.10;;;;;;4942631;28;20034;-84
2021/04/27 06:42:36;;;;;;;9.60;3.90;;;6.90;71.70;;;;;;4958829;28;20031;-84
2021/04/27 06:45:03;;;;;;;5.90;3.17;;;6.90;71.20;;;;;;4943356;28;20023;-84
2021/04/27 06:47:29;;;;;;;6.40;3.35;;;7.00;71.50;;;;;;4959488;28;20114;-84
2021/04/27 06:49:57;;;;;;;6.43;3.47;;;7.10;71.30;;;;;;4942819;28;20131;-84
2021/04/27 06:52:23;;;;;;;8.20;3.72;;;7.10;70.50;;;;;;4943616;28;20126;-84
2021/04/27 06:54:49;;;;;;;7.80;3.47;;;7.20;70.30;;;;;;4958469;28;20031;-84
2021/04/27 06:57:25;;;;;;;6.03;3.33;;;7.30;71.00;;;;;;4976197;28;20038;-85
2021/04/27 07:00:30;;;;;;;8.05;3.65;;;7.40;70.20;;;;;;4976528;28;20038;-83
2021/04/27 07:02:55;;;;;;;6.65;3.20;;;7.40;69.20;;;;;;4959688;28;20505;-84
2021/04/27 07:05:21;;;;;;;7.32;3.30;;;7.60;70.10;;;;;;4926901;28;20031;-84
2021/04/27 07:07:49;;;;;;;6.95;3.92;;;7.60;69.50;;;;;;4952775;28;20046;-84
2021/04/27 07:11:20;;;;;;;6.50;3.10;;;7.70;68.80;;;;;;4963277;28;20042;-84
2021/04/27 07:13:46;;;;;;;5.87;3.80;;;7.80;69.50;;;;;;4996193;28;20089;-84
2021/04/27 07:16:11;;;;;;;7.50;3.20;;;7.90;68.60;;;;;;4978086;28;20042;-84
2021/04/27 07:18:37;;;;;;;7.15;3.40;;;8.00;68.20;;;;;;4995183;28;20113;-84
2021/04/27 07:21:37;;;;;;;8.63;3.53;;;8.10;68.80;;;;;;4977977;28;20030;-84
2021/04/27 07:27:57;;;;;;;6.70;3.40;;;8.40;67.40;;;;;;4995469;28;20501;-84
2021/04/27 07:30:22;;;;;;;6.10;3.20;;;8.50;67.30;;;;;;4977906;28;20022;-84
2021/04/27 07:32:48;;;;;;;5.13;3.17;;;8.60;67.70;;;;;;4977544;28;20022;-84
2021/04/27 07:35:14;;;;;;;5.45;3.28;;;8.70;68.00;;;;;;4961478;28;20092;-84
2021/04/27 07:37:40;;;;;;;5.70;3.60;;;8.90;67.30;;;;;;4961455;28;20038;-84
2021/04/27 07:40:08;;;;;;;6.05;3.20;;;9.00;67.10;;;;;;4978198;28;20041;-85
2021/04/27 07:42:34;;;;;;;5.38;3.20;;;9.10;67.30;;;;;;4978334;28;20383;-85
2021/04/27 07:45:02;;;;;;;5.63;2.97;;;9.20;67.10;;;;;;4961506;28;20039;-84
2021/04/27 07:47:28;;;;;;;9.20;3.50;;;9.40;67.00;;;;;;4960747;28;20034;-86
2021/04/27 07:49:54;;;;;;;7.07;3.47;;;9.50;65.00;;;;;;4961256;28;20081;-85
2021/04/27 07:53:08;;;;;;;5.45;2.70;;;9.60;64.50;;;;;;4961303;28;20030;-85
2021/04/27 07:59:22;;;;;;;4.97;2.85;;;9.80;60.30;;;;;;4994610;28;20121;-86
2021/04/27 08:01:48;;;;;;;4.45;2.78;;;9.90;59.60;;;;;;4977676;28;20031;-83
2021/04/27 08:04:15;;;;;;;5.05;2.50;;;10.00;59.90;;;;;;4962216;28;20117;-84
2021/04/27 08:06:41;;;;;;;3.95;2.30;;;10.20;60.60;;;;;;4977507;28;20030;-86
2021/04/27 08:09:13;;;;;;;3.97;2.17;;;10.30;60.90;;;;;;4990922;28;20149;-86
2021/04/27 08:11:40;;;;;;;4.30;2.75;;;10.40;60.60;;;;;;4971011;28;20054;-85
2021/04/27 08:14:10;;;;;;;4.93;2.70;;;10.60;56.80;;;;;;4961269;28;20100;-86
2021/04/27 08:20:09;;;;;;;5.20;2.65;;;10.90;57.60;;;;;;4994646;28;20494;-86
2021/04/27 08:22:35;;;;;;;5.15;2.65;;;11.00;54.70;;;;;;4977735;28;20058;-86
2021/04/27 08:25:01;;;;;;;5.10;2.30;;;11.10;53.80;;;;;;4961886;28;20030;-86
2021/04/27 08:28:23;;;;;;;4.60;3.08;;;11.20;54.00;;;;;;4977303;28;20088;-85
2021/04/27 08:41:04;;;;;;;7.00;2.78;;;11.70;53.00;;;;;;4993811;28;20506;-84
2021/04/27 08:43:30;;;;;;;5.40;2.67;;;11.90;52.40;;;;;;4977270;28;20039;-85
2021/04/27 08:45:56;;;;;;;8.40;2.80;;;11.90;51.40;;;;;;4946045;28;20031;-86
2021/04/27 08:48:22;;;;;;;4.78;2.28;;;12.10;50.10;;;;;;4961397;28;20493;-88
2021/04/27 08:50:49;;;;;;;7.47;2.10;;;12.20;52.00;;;;;;4961042;28;20050;-85
2021/04/27 08:53:33;;;;;;;4.80;2.70;;;12.20;51.40;;;;;;4976597;28;20414;-85
2021/04/27 08:55:59;;;;;;;6.28;3.22;;;12.40;50.20;;;;;;4959941;28;20113;-86
2021/04/27 08:58:25;;;;;;;5.85;2.55;;;12.50;49.20;;;;;;4962388;28;20054;-85
2021/04/27 09:00:51;;;;;;;10.18;3.50;;;12.60;49.40;;;;;;4979935;28;20035;-85
2021/04/27 09:03:16;;;;;;;5.20;2.83;;;12.70;49.10;;;;;;4980129;28;20032;-85
2021/04/27 09:06:23;;;;;;;7.45;3.28;;;12.80;49.20;;;;;;4964306;28;20058;-86
2021/04/27 09:12:12;;;;;;;5.10;3.08;;;13.00;48.90;;;;;;4997536;28;20116;-85
2021/04/27 09:14:42;;;;;;;4.15;2.60;;;13.10;49.50;;;;;;4979951;28;20029;-85
2021/04/27 09:17:13;;;;;;;4.43;2.63;;;13.20;47.90;;;;;;4963949;28;20033;-85
2021/04/27 09:23:45;;;;;;;4.10;2.28;;;13.40;48.60;;;;;;4997109;28;20025;-83
2021/04/27 09:26:19;;;;;;;4.07;2.47;;;13.50;47.50;;;;;;4979133;28;20471;-84
2021/04/27 09:28:50;;;;;;;3.70;2.17;;;13.60;47.20;;;;;;4979928;28;20475;-84
2021/04/27 09:32:08;;;;;;;5.05;2.33;;;13.70;48.10;;;;;;4980231;28;20034;-85
2021/04/27 09:34:54;;;;;;;5.95;2.20;;;13.80;48.00;;;;;;4980168;28;20031;-83
2021/04/27 09:37:19;;;;;;;5.13;2.30;;;13.90;44.70;;;;;;4980067;28;20026;-83
2021/04/27 09:39:47;;;;;;;5.68;2.13;;;14.00;45.30;;;;;;4979251;28;20037;-85
2021/04/27 09:42:17;;;;;;;5.10;2.30;;;14.00;44.80;;;;;;4964495;28;20125;-86
2021/04/27 09:45:37;;;;;;;3.20;2.30;;;14.00;43.80;;;;;;4979541;28;20029;-87
2021/04/27 09:48:49;;;;;;;4.50;2.40;;;14.10;44.70;;;;;;4996916;28;20097;-85
2021/04/27 09:51:14;;;;;;;8.95;2.58;;;14.20;43.30;;;;;;4977471;28;20475;-83
2021/04/27 09:53:40;;;;;;;3.50;2.20;;;14.30;43.60;;;;;;4979019;28;20198;-84
2021/04/27 09:56:07;;;;;;;3.40;1.90;;;14.30;42.50;;;;;;4979039;28;20026;-85
2021/04/27 09:58:33;;;;;;;3.45;2.35;;;14.40;44.60;;;;;;4978803;28;20022;-86
2021/04/27 10:00:58;;;;;;;3.85;2.40;;;14.50;44.80;;;;;;4996297;28;20030;-86
2021/04/27 10:03:49;;;;;;;4.80;2.35;;;14.60;41.60;;;;;;4963536;28;20035;-84
2021/04/27 10:06:15;;;;;;;4.32;2.42;;;14.70;41.70;;;;;;4978826;28;20031;-83
2021/04/27 10:08:41;;;;;;;5.15;2.30;;;14.70;41.30;;;;;;4963851;28;20368;-84
2021/04/27 10:11:27;;;;;;;4.72;2.10;;;14.80;41.30;;;;;;4962139;28;20532;-87
2021/04/27 10:13:55;;;;;;;3.35;2.08;;;14.90;42.70;;;;;;4983318;28;20026;-84
2021/04/27 10:16:22;;;;;;;2.75;2.05;;;15.00;41.30;;;;;;4997923;28;20029;-84
2021/04/27 10:18:48;;;;;;;3.95;2.20;;;15.00;40.40;;;;;;4997835;28;20026;-85
2021/04/27 10:24:39;;;;;;;5.45;2.38;;;15.20;38.60;;;;;;5015469;28;20053;-83
2021/04/27 10:27:05;;;;;;;4.28;2.40;;;15.20;40.60;;;;;;4997349;28;20022;-84
2021/04/27 10:29:31;;;;;;;4.32;2.10;;;15.30;39.70;;;;;;4982354;28;20133;-85
2021/04/27 10:32:24;;;;;;;4.78;2.28;;;15.30;40.50;;;;;;4998331;28;20026;-86
2021/04/27 10:34:59;;;;;;;4.95;2.35;;;15.40;41.00;;;;;;4997701;28;20021;-84
2021/04/27 10:37:31;;;;;;;6.53;2.90;;;15.50;42.30;;;;;;4997611;28;20121;-86
2021/04/27 10:39:57;;;;;;;4.10;2.28;;;15.60;40.90;;;;;;4997538;28;20080;-86
2021/04/27 10:42:33;;;;;;;4.10;2.25;;;15.70;40.90;;;;;;5015401;28;20026;-86
2021/04/27 10:49:10;;;;;;;4.82;2.13;;;15.80;39.90;;;;;;5013877;28;20100;-86
2021/04/27 10:51:38;;;;;;;4.88;2.72;;;15.80;40.30;;;;;;4997104;28;20128;-84
2021/04/27 10:57:45;;;;;;;5.60;2.25;;;15.90;39.90;;;;;;4918341;28;20143;-84
2021/04/27 11:18:27;;;;;;;3.33;2.35;;;16.50;39.80;;;;;;4915366;29;20055;-86
2021/04/27 11:24:37;;;;;;;4.90;2.33;;;16.70;39.70;;;;;;4962534;28;20081;-86
2021/04/27 11:27:04;;;;;;;4.70;1.90;;;16.80;39.40;;;;;;4947169;28;20035;-87
2021/04/27 11:29:34;;;;;;;4.25;2.67;;;16.90;39.10;;;;;;4941797;28;20022;-87
2021/04/27 11:32:14;;;;;;;6.38;3.25;;;16.90;37.20;;;;;;4936993;29;20038;-85
2021/04/27 11:35:16;;;;;;;6.00;2.40;;;16.90;37.20;;;;;;4980634;28;20121;-86
2021/04/27 11:37:53;;;;;;;5.25;2.47;;;17.00;37.90;;;;;;4982288;28;20038;-86
2021/04/27 11:40:32;;;;;;;5.13;2.20;;;17.10;39.70;;;;;;4981765;28;20113;-85
2021/04/27 11:43:13;;;;;;;4.88;2.20;;;17.20;40.20;;;;;;4995841;28;20126;-85
2021/04/27 11:45:43;;;;;;;6.22;2.90;;;17.20;40.40;;;;;;4985740;28;20070;-76
2021/04/27 11:48:14;;;;;;;4.32;2.05;;;17.30;39.00;;;;;;4978497;28;20027;-80
2021/04/27 11:50:41;;;;;;;9.13;2.80;;;17.40;39.30;;;;;;4988830;28;20060;-77
2021/04/27 11:53:10;;;;;;;4.18;2.58;;;17.50;38.40;;;;;;4967394;28;20049;-77
2021/04/27 11:55:46;;;;;;;5.60;3.00;;;17.60;39.00;;;;;;5015956;28;20063;-85
2021/04/27 11:58:23;;;;;;;3.30;2.15;;;17.70;38.90;;;;;;4999697;28;20033;-89
2021/04/27 12:01:03;;;;;;;6.07;3.10;;;17.80;39.40;;;;;;5017671;28;20026;-85
2021/04/27 12:03:47;;;;;;;5.78;2.20;;;17.80;36.00;;;;;;4995647;28;20108;-85
2021/04/27 12:06:18;;;;;;;3.60;2.00;;;17.90;37.60;;;;;;5006576;28;20029;-84
2021/04/27 12:08:54;;;;;;;5.72;2.40;;;18.00;38.60;;;;;;4984722;28;20030;-88
2021/04/27 12:11:32;;;;;;;4.97;2.38;;;18.10;37.20;;;;;;5010976;28;20030;-84
2021/04/27 12:14:11;;;;;;;3.92;2.47;;;18.20;37.70;;;;;;4994095;28;20014;-86
2021/04/27 12:16:42;;;;;;;3.28;2.20;;;18.30;37.80;;;;;;4993682;28;20030;-84
2021/04/27 12:19:10;;;;;;;3.60;2.17;;;18.40;37.90;;;;;;4961875;28;20124;-83
2021/04/27 12:22:00;;;;;;;4.15;2.58;;;18.50;35.50;;;;;;4981714;28;20490;-84
2021/04/27 12:24:29;;;;;;;4.15;2.30;;;18.60;35.60;;;;;;4991893;28;20367;-83
2021/04/27 12:27:07;;;;;;;3.83;1.92;;;18.60;36.10;;;;;;5001745;28;20022;-83
2021/04/27 12:29:39;;;;;;;5.03;2.40;;;18.70;38.30;;;;;;4976598;28;20030;-83
2021/04/27 12:32:12;;;;;;;5.88;2.70;;;18.80;34.10;;;;;;5010894;28;20410;-83
2021/04/27 12:34:53;;;;;;;6.15;2.53;;;18.90;35.10;;;;;;4998174;28;20026;-84
2021/04/27 12:37:19;;;;;;;5.28;2.70;;;18.90;34.20;;;;;;4999476;28;20080;-85
2021/04/27 12:39:44;;;;;;;4.07;2.53;;;18.90;32.90;;;;;;4963488;28;20030;-86
2021/04/27 12:42:27;;;;;;;3.88;2.70;;;18.90;33.70;;;;;;4971502;28;20121;-89
2021/04/27 12:45:04;;;;;;;3.60;2.50;;;19.00;36.10;;;;;;5016697;28;20022;-84
2021/04/27 12:47:35;;;;;;;8.93;2.85;;;19.00;34.00;;;;;;4997802;28;20149;-85
2021/04/27 12:50:12;;;;;;;5.10;2.70;;;19.00;35.10;;;;;;4981384;28;20038;-85
2021/04/27 12:52:43;;;;;;;3.88;2.40;;;19.00;34.70;;;;;;4997484;28;20049;-84
2021/04/27 12:55:17;;;;;;;5.70;2.13;;;19.10;33.10;;;;;;4997687;28;20014;-84
2021/04/27 12:57:43;;;;;;;3.88;2.15;;;19.10;33.20;;;;;;4998465;28;20812;-85
2021/04/27 13:00:10;;;;;;;5.55;3.00;;;19.10;34.10;;;;;;4969066;28;20062;-85
2021/04/27 13:02:36;;;;;;;5.57;2.80;;;19.20;35.30;;;;;;4997768;28;20397;-85
2021/04/27 13:05:05;;;;;;;4.65;2.50;;;19.30;34.30;;;;;;4998114;28;20041;-85
2021/04/27 13:07:34;;;;;;;5.20;2.92;;;19.30;34.30;;;;;;4974621;28;20019;-84
2021/04/27 13:10:22;;;;;;;5.15;2.90;;;19.40;34.70;;;;;;4991589;28;20029;-85
2021/04/27 13:12:48;;;;;;;5.25;2.72;;;19.40;34.40;;;;;;4993062;28;20056;-85
2021/04/27 13:15:22;;;;;;;4.43;3.03;;;19.50;34.40;;;;;;5009429;28;20057;-86
2021/04/27 13:18:09;;;;;;;3.10;2.00;;;19.60;32.50;;;;;;4996571;28;20080;-86
2021/04/27 13:20:43;;;;;;;4.93;2.30;;;19.60;33.80;;;;;;4996723;28;20121;-85
2021/04/27 13:23:12;;;;;;;3.58;2.22;;;19.70;35.70;;;;;;5014650;28;20029;-85
2021/04/27 13:25:42;;;;;;;3.53;2.30;;;19.80;34.60;;;;;;4996288;28;20385;-85
2021/04/27 13:28:15;;;;;;;3.85;2.20;;;19.90;33.80;;;;;;4997613;28;20028;-85
2021/04/27 13:30:49;;;;;;;7.50;2.60;;;20.00;32.10;;;;;;4996765;28;20081;-94
2021/04/27 13:33:21;;;;;;;4.80;2.10;;;20.10;32.60;;;;;;5011490;28;20455;-91
2021/04/27 13:35:50;;;;;;;5.10;2.00;;;20.10;34.80;;;;;;4996806;28;20037;-82
2021/04/27 13:38:18;;;;;;;4.22;2.35;;;20.30;36.30;;;;;;5012301;28;20029;-82
2021/04/27 13:40:46;;;;;;;5.72;2.78;;;20.40;31.80;;;;;;4978646;28;20030;-81
2021/04/27 13:43:16;;;;;;;4.45;2.92;;;20.50;32.00;;;;;;4995747;28;20050;-81
2021/04/27 13:45:47;;;;;;;3.17;2.00;;;20.50;32.30;;;;;;4994995;28;20163;-82
2021/04/27 13:48:14;;;;;;;4.40;2.10;;;20.50;33.50;;;;;;4995488;28;20029;-82
2021/04/27 13:50:43;;;;;;;4.10;2.20;;;20.60;33.50;;;;;;5013363;28;20030;-82
2021/04/27 13:53:10;;;;;;;3.28;1.95;;;20.70;34.50;;;;;;4996020;28;20117;-82
2021/04/27 13:55:37;;;;;;;2.67;1.70;;;20.80;34.20;;;;;;4994321;28;20373;-82
2021/04/27 13:58:03;;;;;;;3.33;2.25;;;21.00;34.50;;;;;;4994955;28;20026;-86
2021/04/27 14:00:30;;;;;;;2.80;1.88;;;21.10;32.70;;;;;;4973015;28;20042;-86
2021/04/27 14:02:57;;;;;;;5.18;1.90;;;21.20;35.10;;;;;;4982234;28;20042;-85
2021/04/27 14:05:24;;;;;;;4.05;2.13;;;21.30;32.70;;;;;;4987761;28;20053;-86
2021/04/27 14:07:50;;;;;;;2.75;2.10;;;21.40;32.10;;;;;;4975591;28;20562;-86
2021/04/27 14:10:18;;;;;;;3.88;2.00;;;21.30;31.80;;;;;;4985175;28;20042;-87
2021/04/27 14:12:45;;;;;;;3.60;2.08;;;21.30;31.30;;;;;;4985492;28;20033;-87
2021/04/27 14:15:12;;;;;;;3.45;1.90;;;21.20;31.40;;;;;;4977119;28;20463;-87
2021/04/27 14:17:39;;;;;;;3.75;1.92;;;21.10;32.70;;;;;;4992711;28;20053;-86
2021/04/27 14:20:07;;;;;;;3.05;2.00;;;21.10;31.50;;;;;;4999250;28;20053;-86
2021/04/27 14:22:33;;;;;;;4.45;1.83;;;21.10;32.50;;;;;;4966860;28;20028;-85
2021/04/27 14:24:58;;;;;;;3.30;1.95;;;21.10;32.90;;;;;;4976743;28;20030;-86
2021/04/27 14:27:27;;;;;;;4.05;1.85;;;21.10;33.60;;;;;;4989918;28;20112;-88
2021/04/27 14:29:53;;;;;;;7.55;2.10;;;21.20;33.00;;;;;;5014125;28;20492;-87
2021/04/27 14:32:19;;;;;;;3.67;1.77;;;21.20;33.30;;;;;;4996188;28;20026;-87
2021/04/27 14:34:45;;;;;;;3.25;1.90;;;21.30;33.10;;;;;;4980596;28;20065;-87
2021/04/27 14:37:10;;;;;;;2.70;1.70;;;21.30;32.00;;;;;;4979821;28;20088;-87
2021/04/27 14:39:36;;;;;;;5.88;2.17;;;21.30;32.00;;;;;;4989100;28;20069;-87
2021/04/27 14:42:03;;;;;;;3.40;1.88;;;21.30;32.90;;;;;;4989708;28;20049;-88
2021/04/27 14:44:28;;;;;;;2.90;2.00;;;21.40;33.00;;;;;;4982368;28;20013;-87
2021/04/27 14:46:54;;;;;;;2.45;1.63;;;21.40;33.70;;;;;;4996351;28;20117;-86
2021/04/27 14:49:20;;;;;;;3.30;1.85;;;21.50;34.40;;;;;;4993916;28;20037;-88
2021/04/27 14:51:47;;;;;;;3.08;1.77;;;21.50;32.20;;;;;;4987320;28;20022;-88
2021/04/27 14:54:12;;;;;;;5.05;2.22;;;21.50;32.00;;;;;;4983955;28;20038;-88
2021/04/27 14:56:38;;;;;;;2.15;1.60;;;21.50;31.00;;;;;;4998136;28;20125;-89
2021/04/27 14:59:04;;;;;;;4.97;1.90;;;21.50;31.60;;;;;;5000374;28;20026;-88
2021/04/27 15:01:34;;;;;;;2.83;2.20;;;21.50;33.00;;;;;;4991902;28;20482;-89
2021/04/27 15:04:03;;;;;;;4.20;1.80;;;21.50;32.20;;;;;;4975247;28;20037;-90
2021/04/27 15:06:30;;;;;;;2.80;1.83;;;21.50;33.40;;;;;;5018228;28;20268;-90
2021/04/27 15:08:55;;;;;;;3.08;1.70;;;21.50;34.50;;;;;;5012512;28;20022;-89
2021/04/27 15:11:21;;;;;;;4.75;1.83;;;21.50;33.80;;;;;;4988629;28;20032;-89
2021/04/27 15:13:47;;;;;;;4.00;1.95;;;21.50;34.10;;;;;;4974532;28;20502;-89
2021/04/27 15:16:13;;;;;;;7.50;2.90;;;21.60;33.00;;;;;;4980193;28;20021;-92
2021/04/27 15:18:41;;;;;;;4.68;2.42;;;21.50;31.00;;;;;;4996018;28;20052;-89
2021/04/27 15:21:10;;;;;;;2.88;1.85;;;21.50;34.20;;;;;;4985904;28;20031;-90
2021/04/27 15:23:43;;;;;;;2.78;1.95;;;21.50;34.80;;;;;;4995686;28;20040;-92